createdAt,value
2016-08-09T00:00:32.674Z,0
2016-08-09T00:01:32.697Z,0
2016-08-09T00:02:33.423Z,0
2016-08-09T00:03:33.451Z,0
2016-08-09T00:04:32.058Z,0
2016-08-09T00:05:32.758Z,0
2016-08-09T00:06:32.088Z,0
2016-08-09T00:07:32.920Z,0
2016-08-09T00:08:32.973Z,0
2016-08-09T00:09:32.840Z,0
2016-08-09T00:10:31.468Z,0
2016-08-09T00:11:33.699Z,0
2016-08-09T00:12:32.916Z,0
2016-08-09T00:13:32.228Z,0
2016-08-09T00:14:32.366Z,0
2016-08-09T00:15:33.667Z,0
2016-08-09T00:16:32.971Z,0
2016-08-09T00:17:33.000Z,0
2016-08-09T00:18:33.019Z,0
2016-08-09T00:19:31.710Z,0
2016-08-09T00:20:33.106Z,0
2016-08-09T00:21:33.787Z,0
2016-08-09T00:22:33.909Z,0
2016-08-09T00:23:33.819Z,0
2016-08-09T00:24:33.123Z,0
2016-08-09T00:25:33.169Z,0
2016-08-09T00:26:33.187Z,0
2016-08-09T00:27:32.619Z,0
2016-08-09T00:28:33.212Z,0
2016-08-09T00:29:33.335Z,0
2016-08-09T00:30:31.851Z,0
2016-08-09T00:31:33.267Z,0
2016-08-09T00:32:34.004Z,0
2016-08-09T00:33:32.598Z,0
2016-08-09T00:34:32.649Z,0
2016-08-09T00:35:34.052Z,0
2016-08-09T00:36:32.698Z,0
2016-08-09T00:37:33.399Z,0
2016-08-09T00:38:32.092Z,0
2016-08-09T00:39:34.143Z,0
2016-08-09T00:40:34.252Z,0
2016-08-09T00:41:34.168Z,0
2016-08-09T00:42:33.610Z,0
2016-08-09T00:43:32.812Z,0
2016-08-09T00:44:32.820Z,0
2016-08-09T00:45:32.902Z,0
2016-08-09T00:46:34.321Z,0
2016-08-09T00:47:33.670Z,0
2016-08-09T00:48:32.893Z,0
2016-08-09T00:49:33.724Z,0
2016-08-09T00:50:32.959Z,0
2016-08-09T00:51:32.364Z,0
2016-08-09T00:52:32.973Z,0
2016-08-09T00:53:33.000Z,0
2016-08-09T00:54:33.730Z,0
2016-08-09T00:55:32.396Z,0
2016-08-09T00:56:33.763Z,0
2016-08-09T00:57:33.787Z,0
2016-08-09T00:58:33.163Z,0
2016-08-09T00:59:33.833Z,0
2016-08-09T01:00:33.155Z,0
2016-08-09T01:01:33.151Z,0
2016-08-09T01:02:34.007Z,0
2016-08-09T01:03:33.924Z,0
2016-08-09T01:04:33.212Z,0
2016-08-09T01:05:33.251Z,0
2016-08-09T01:06:33.987Z,0
2016-08-09T01:07:33.259Z,0
2016-08-09T01:08:34.051Z,0
2016-08-09T01:09:34.735Z,0
2016-08-09T01:10:34.091Z,0
2016-08-09T01:11:34.787Z,0
2016-08-09T01:12:34.070Z,0
2016-08-09T01:13:33.423Z,0
2016-08-09T01:14:34.831Z,0
2016-08-09T01:15:34.160Z,0
2016-08-09T01:16:34.853Z,0
2016-08-09T01:17:33.481Z,0
2016-08-09T01:18:33.492Z,0
2016-08-09T01:19:34.927Z,0
2016-08-09T01:20:32.835Z,0
2016-08-09T01:21:33.531Z,0
2016-08-09T01:22:34.992Z,0
2016-08-09T01:23:33.572Z,0
2016-08-09T01:24:32.893Z,0
2016-08-09T01:25:33.013Z,0
2016-08-09T01:26:33.719Z,0
2016-08-09T01:27:33.665Z,0
2016-08-09T01:28:34.391Z,0
2016-08-09T01:29:33.715Z,0
2016-08-09T01:30:34.503Z,0
2016-08-09T01:31:35.159Z,0
2016-08-09T01:32:34.670Z,0
2016-08-09T01:33:33.784Z,0
2016-08-09T01:34:33.853Z,0
2016-08-09T01:35:35.260Z,0
2016-08-09T01:36:34.577Z,0
2016-08-09T01:37:33.930Z,0
2016-08-09T01:38:35.282Z,0
2016-08-09T01:39:34.621Z,0
2016-08-09T01:40:35.352Z,0
2016-08-09T01:41:34.653Z,0
2016-08-09T01:42:35.380Z,0
2016-08-09T01:43:34.135Z,0
2016-08-09T01:44:35.411Z,0
2016-08-09T01:45:34.081Z,0
2016-08-09T01:46:34.742Z,0
2016-08-09T01:47:35.468Z,0
2016-08-09T01:48:34.082Z,0
2016-08-09T01:49:34.894Z,0
2016-08-09T01:50:35.019Z,0
2016-08-09T01:51:33.425Z,0
2016-08-09T01:52:35.581Z,0
2016-08-09T01:53:34.188Z,0
2016-08-09T01:54:34.912Z,0
2016-08-09T01:55:35.631Z,0
2016-08-09T01:56:34.943Z,0
2016-08-09T01:57:34.963Z,0
2016-08-09T01:58:34.271Z,0
2016-08-09T01:59:34.299Z,0
2016-08-09T02:00:35.801Z,0
2016-08-09T02:01:34.361Z,0
2016-08-09T02:02:35.299Z,0
2016-08-09T02:03:35.169Z,0
2016-08-09T02:04:35.129Z,0
2016-08-09T02:05:35.283Z,0
2016-08-09T02:06:35.862Z,0
2016-08-09T02:07:35.187Z,0
2016-08-09T02:08:33.847Z,0
2016-08-09T02:09:35.947Z,0
2016-08-09T02:10:35.228Z,0
2016-08-09T02:11:34.537Z,0
2016-08-09T02:12:35.980Z,0
2016-08-09T02:13:35.341Z,0
2016-08-09T02:14:34.604Z,0
2016-08-09T02:15:36.029Z,0
2016-08-09T02:16:36.046Z,0
2016-08-09T02:17:34.663Z,0
2016-08-09T02:18:34.053Z,0
2016-08-09T02:19:36.134Z,0
2016-08-09T02:20:35.434Z,0
2016-08-09T02:21:34.846Z,0
2016-08-09T02:22:36.240Z,0
2016-08-09T02:23:35.481Z,0
2016-08-09T02:24:35.543Z,0
2016-08-09T02:25:36.233Z,0
2016-08-09T02:26:34.840Z,0
2016-08-09T02:27:36.249Z,0
2016-08-09T02:28:36.331Z,0
2016-08-09T02:29:36.343Z,0
2016-08-09T02:30:35.617Z,0
2016-08-09T02:31:34.932Z,0
2016-08-09T02:32:34.732Z,0
2016-08-09T02:33:35.778Z,0
2016-08-09T02:34:34.315Z,0
2016-08-09T02:35:35.786Z,0
2016-08-09T02:36:35.737Z,0
2016-08-09T02:37:35.831Z,0
2016-08-09T02:38:35.755Z,0
2016-08-09T02:39:35.796Z,0
2016-08-09T02:40:35.813Z,0
2016-08-09T02:41:35.133Z,0
2016-08-09T02:42:35.873Z,0
2016-08-09T02:43:34.471Z,0
2016-08-09T02:44:35.913Z,0
2016-08-09T02:45:35.219Z,0
2016-08-09T02:46:35.314Z,0
2016-08-09T02:47:36.992Z,0
2016-08-09T02:48:35.258Z,0
2016-08-09T02:49:35.983Z,0
2016-08-09T02:50:36.706Z,0
2016-08-09T02:51:36.733Z,0
2016-08-09T02:52:36.777Z,0
2016-08-09T02:53:35.433Z,0
2016-08-09T02:54:35.452Z,0
2016-08-09T02:55:35.482Z,0
2016-08-09T02:56:34.723Z,0
2016-08-09T02:57:36.252Z,0
2016-08-09T02:58:36.169Z,0
2016-08-09T02:59:36.899Z,0
2016-08-09T03:00:35.502Z,0
2016-08-09T03:01:35.527Z,0
2016-08-09T03:02:37.023Z,0
2016-08-09T03:03:36.277Z,0
2016-08-09T03:04:35.683Z,0
2016-08-09T03:05:36.290Z,0
2016-08-09T03:06:37.318Z,0
2016-08-09T03:07:36.332Z,0
2016-08-09T03:08:37.075Z,0
2016-08-09T03:09:37.264Z,0
2016-08-09T03:10:35.692Z,0
2016-08-09T03:11:35.726Z,4
2016-08-09T03:12:36.463Z,4
2016-08-09T03:13:36.459Z,0
2016-08-09T03:14:36.601Z,0
2016-08-09T03:15:37.300Z,4
2016-08-09T03:16:36.523Z,4
2016-08-09T03:17:36.831Z,0
2016-08-09T03:18:37.298Z,4
2016-08-09T03:19:37.333Z,4
2016-08-09T03:20:35.870Z,4
2016-08-09T03:21:36.072Z,8
2016-08-09T03:22:36.609Z,4
2016-08-09T03:23:36.652Z,8
2016-08-09T03:24:36.662Z,8
2016-08-09T03:25:36.819Z,8
2016-08-09T03:26:35.281Z,12
2016-08-09T03:27:36.721Z,12
2016-08-09T03:28:36.828Z,16
2016-08-09T03:29:36.098Z,16
2016-08-09T03:30:36.791Z,16
2016-08-09T03:31:36.800Z,24
2016-08-09T03:32:39.058Z,24
2016-08-09T03:33:35.420Z,28
2016-08-09T03:34:36.154Z,32
2016-08-09T03:35:36.866Z,36
2016-08-09T03:36:37.573Z,40
2016-08-09T03:37:36.206Z,48
2016-08-09T03:38:36.221Z,56
2016-08-09T03:39:36.940Z,60
2016-08-09T03:40:36.264Z,64
2016-08-09T03:41:36.977Z,76
2016-08-09T03:42:37.818Z,88
2016-08-09T03:43:37.023Z,96
2016-08-09T03:44:36.398Z,108
2016-08-09T03:45:35.736Z,120
2016-08-09T03:46:36.372Z,128
2016-08-09T03:48:36.398Z,148
2016-08-09T03:49:36.431Z,156
2016-08-09T03:50:35.753Z,168
2016-08-09T03:51:37.974Z,176
2016-08-09T03:52:37.203Z,188
2016-08-09T03:53:37.209Z,200
2016-08-09T03:54:37.229Z,212
2016-08-09T03:55:36.538Z,228
2016-08-09T03:56:37.623Z,244
2016-08-09T03:57:37.281Z,260
2016-08-09T03:58:37.980Z,280
2016-08-09T03:59:37.329Z,300
2016-08-09T04:00:38.031Z,328
2016-08-09T04:01:37.361Z,360
2016-08-09T04:03:38.091Z,424
2016-08-09T04:04:38.132Z,452
2016-08-09T04:05:38.135Z,476
2016-08-09T04:06:37.628Z,508
2016-08-09T04:07:38.193Z,552
2016-08-09T04:08:38.202Z,600
2016-08-09T04:09:37.630Z,640
2016-08-09T04:10:36.987Z,680
2016-08-09T04:11:36.943Z,724
2016-08-09T04:12:37.659Z,768
2016-08-09T04:13:37.674Z,820
2016-08-09T04:14:36.929Z,868
2016-08-09T04:15:37.728Z,932
2016-08-09T04:16:36.929Z,980
2016-08-09T04:18:36.970Z,1048
2016-08-09T04:19:37.781Z,1096
2016-08-09T04:20:38.463Z,1148
2016-08-09T04:21:38.529Z,1188
2016-08-09T04:22:37.171Z,1216
2016-08-09T04:23:38.469Z,1216
2016-08-09T04:24:37.161Z,1200
2016-08-09T04:25:37.830Z,1184
2016-08-09T04:26:38.522Z,1172
2016-08-09T04:27:38.543Z,1164
2016-08-09T04:28:38.645Z,1160
2016-08-09T04:29:38.594Z,1164
2016-08-09T04:30:37.301Z,1172
2016-08-09T04:31:38.629Z,1192
2016-08-09T04:33:37.242Z,1240
2016-08-09T04:34:37.272Z,1256
2016-08-09T04:35:37.983Z,1284
2016-08-09T04:36:36.593Z,1304
2016-08-09T04:37:38.742Z,1320
2016-08-09T04:38:38.763Z,1352
2016-08-09T04:39:38.056Z,1404
2016-08-09T04:40:38.071Z,1468
2016-08-09T04:41:38.859Z,1528
2016-08-09T04:42:38.123Z,1588
2016-08-09T04:43:38.213Z,1648
2016-08-09T04:44:38.869Z,1708
2016-08-09T04:45:38.881Z,1832
2016-08-09T04:46:36.782Z,1976
2016-08-09T04:48:38.231Z,2356
2016-08-09T04:49:38.992Z,2548
2016-08-09T04:50:37.577Z,2700
2016-08-09T04:51:37.581Z,2760
2016-08-09T04:52:39.013Z,2824
2016-08-09T04:53:39.052Z,2944
2016-08-09T04:54:38.457Z,3228
2016-08-09T04:55:38.371Z,3364
2016-08-09T04:56:38.441Z,3448
2016-08-09T04:57:38.392Z,3472
2016-08-09T04:58:37.012Z,3676
2016-08-09T04:59:37.743Z,3812
2016-08-09T05:00:38.469Z,4024
2016-08-09T05:01:38.472Z,4144
2016-08-09T05:02:37.232Z,4296
2016-08-09T05:03:39.203Z,4428
2016-08-09T05:04:38.532Z,4576
2016-08-09T05:05:38.562Z,4728
2016-08-09T05:06:39.281Z,4844
2016-08-09T05:07:39.306Z,4968
2016-08-09T05:08:37.950Z,5012
2016-08-09T05:09:38.674Z,5048
2016-08-09T05:10:38.656Z,5092
2016-08-09T05:11:38.663Z,5312
2016-08-09T05:12:37.966Z,5476
2016-08-09T05:13:39.424Z,5500
2016-08-09T05:14:38.112Z,5044
2016-08-09T05:15:38.781Z,5396
2016-08-09T05:16:38.189Z,4864
2016-08-09T05:17:38.871Z,5008
2016-08-09T05:18:38.820Z,4804
2016-08-09T05:19:38.094Z,4456
2016-08-09T05:20:38.847Z,4348
2016-08-09T05:21:38.203Z,4388
2016-08-09T05:22:38.892Z,4152
2016-08-09T05:23:38.203Z,4080
2016-08-09T05:24:37.584Z,3988
2016-08-09T05:25:38.290Z,3884
2016-08-09T05:26:39.656Z,3784
2016-08-09T05:27:37.580Z,3644
2016-08-09T05:28:39.012Z,3420
2016-08-09T05:29:39.113Z,3120
2016-08-09T05:30:38.342Z,2804
2016-08-09T05:31:39.132Z,2504
2016-08-09T05:32:39.090Z,2288
2016-08-09T05:33:38.481Z,2148
2016-08-09T05:34:39.117Z,2068
2016-08-09T05:35:38.453Z,2028
2016-08-09T05:36:38.455Z,2056
2016-08-09T05:37:39.201Z,2156
2016-08-09T05:38:39.190Z,2296
2016-08-09T05:39:39.935Z,2448
2016-08-09T05:40:38.539Z,2632
2016-08-09T05:41:38.552Z,2904
2016-08-09T05:42:40.004Z,3340
2016-08-09T05:43:39.320Z,3832
2016-08-09T05:44:39.493Z,4244
2016-08-09T05:45:40.363Z,4516
2016-08-09T05:46:40.603Z,4744
2016-08-09T05:47:38.674Z,4916
2016-08-09T05:48:39.385Z,5036
2016-08-09T05:49:38.132Z,5156
2016-08-09T05:50:39.442Z,5208
2016-08-09T05:51:40.185Z,5332
2016-08-09T05:52:38.794Z,5516
2016-08-09T05:53:39.522Z,5776
2016-08-09T05:54:38.934Z,6076
2016-08-09T05:55:38.971Z,6392
2016-08-09T05:56:40.311Z,6664
2016-08-09T05:57:39.674Z,6780
2016-08-09T05:58:38.266Z,6904
2016-08-09T05:59:38.922Z,6988
2016-08-09T06:00:39.649Z,6996
2016-08-09T06:01:39.679Z,7016
2016-08-09T06:02:39.694Z,7132
2016-08-09T06:03:40.496Z,7324
2016-08-09T06:04:39.089Z,7104
2016-08-09T06:05:39.756Z,7064
2016-08-09T06:06:39.964Z,7076
2016-08-09T06:07:40.507Z,7280
2016-08-09T06:08:39.240Z,7436
2016-08-09T06:09:40.550Z,7504
2016-08-09T06:10:39.852Z,7584
2016-08-09T06:11:40.588Z,8156
2016-08-09T06:12:38.482Z,7888
2016-08-09T06:13:40.631Z,7640
2016-08-09T06:14:40.746Z,7236
2016-08-09T06:15:40.857Z,7032
2016-08-09T06:16:39.982Z,6936
2016-08-09T06:17:39.282Z,6924
2016-08-09T06:18:38.595Z,7012
2016-08-09T06:19:40.769Z,7152
2016-08-09T06:20:40.822Z,7416
2016-08-09T06:21:40.238Z,7764
2016-08-09T06:22:40.797Z,8152
2016-08-09T06:23:40.135Z,8552
2016-08-09T06:24:39.423Z,8924
2016-08-09T06:25:40.173Z,9268
2016-08-09T06:26:39.481Z,9584
2016-08-09T06:27:39.584Z,9832
2016-08-09T06:28:40.221Z,10040
2016-08-09T06:29:39.543Z,10392
2016-08-09T06:30:40.280Z,10280
2016-08-09T06:31:39.589Z,10928
2016-08-09T06:32:40.315Z,10204
2016-08-09T06:33:41.038Z,10480
2016-08-09T06:34:40.360Z,11200
2016-08-09T06:35:39.681Z,12248
2016-08-09T06:36:40.394Z,13964
2016-08-09T06:37:40.422Z,15200
2016-08-09T06:38:41.224Z,18848
2016-08-09T06:39:39.754Z,21504
2016-08-09T06:40:40.483Z,16704
2016-08-09T06:41:40.774Z,13060
2016-08-09T06:42:41.384Z,13224
2016-08-09T06:43:39.842Z,13672
2016-08-09T06:44:39.883Z,14068
2016-08-09T06:45:39.990Z,15232
2016-08-09T06:46:39.922Z,16576
2016-08-09T06:47:40.678Z,17344
2016-08-09T06:48:41.411Z,17568
2016-08-09T06:52:41.463Z,15392
2016-08-09T06:53:40.899Z,14760
2016-08-09T06:54:40.090Z,14440
2016-08-09T06:55:41.668Z,14132
2016-08-09T06:56:40.870Z,13620
2016-08-09T06:57:39.468Z,13000
2016-08-09T06:58:40.918Z,12376
2016-08-09T06:59:40.236Z,11916
2016-08-09T07:00:41.783Z,11568
2016-08-09T07:01:40.980Z,11192
2016-08-09T07:02:41.127Z,11020
2016-08-09T07:03:40.365Z,10600
2016-08-09T07:04:41.821Z,10136
2016-08-09T07:05:41.786Z,9644
2016-08-09T07:06:41.822Z,9240
2016-08-09T07:07:41.120Z,9180
2016-08-09T07:08:41.863Z,9292
2016-08-09T07:09:41.263Z,9176
2016-08-09T07:10:41.894Z,8776
2016-08-09T07:11:41.322Z,8876
2016-08-09T07:13:41.261Z,9772
2016-08-09T07:14:41.285Z,9880
2016-08-09T07:15:41.307Z,10068
2016-08-09T07:16:41.352Z,10168
2016-08-09T07:17:41.357Z,10484
2016-08-09T07:18:41.390Z,10664
2016-08-09T07:19:42.120Z,14944
2016-08-09T07:20:40.893Z,10224
2016-08-09T07:21:41.462Z,8976
2016-08-09T07:22:41.492Z,9412
2016-08-09T07:23:42.218Z,10672
2016-08-09T07:24:42.298Z,11984
2016-08-09T07:25:41.537Z,12948
2016-08-09T07:26:42.299Z,13356
2016-08-09T07:27:41.581Z,13820
2016-08-09T07:28:41.682Z,13384
2016-08-09T07:29:42.351Z,12656
2016-08-09T07:30:41.660Z,12084
2016-08-09T07:31:41.798Z,11808
2016-08-09T07:32:42.407Z,11320
2016-08-09T07:33:42.560Z,10760
2016-08-09T07:34:41.763Z,10224
2016-08-09T07:35:42.487Z,9668
2016-08-09T07:36:41.800Z,9348
2016-08-09T07:37:40.409Z,8788
2016-08-09T07:38:41.852Z,7940
2016-08-09T07:39:41.155Z,7408
2016-08-09T07:40:41.895Z,7516
2016-08-09T07:41:42.627Z,8320
2016-08-09T07:42:42.643Z,9424
2016-08-09T07:43:41.972Z,10388
2016-08-09T07:44:42.860Z,10844
2016-08-09T07:45:42.102Z,10716
2016-08-09T07:46:42.756Z,10324
2016-08-09T07:47:42.765Z,9848
2016-08-09T07:48:41.383Z,9536
2016-08-09T07:49:42.112Z,9320
2016-08-09T07:50:42.852Z,9180
2016-08-09T07:51:42.846Z,9204
2016-08-09T07:52:42.187Z,9528
2016-08-09T07:53:42.962Z,10208
2016-08-09T07:54:41.509Z,11024
2016-08-09T07:55:43.124Z,11788
2016-08-09T07:56:42.980Z,12328
2016-08-09T07:57:41.652Z,12780
2016-08-09T07:58:43.021Z,13436
2016-08-09T07:59:43.035Z,12992
2016-08-09T08:00:41.643Z,12288
2016-08-09T08:01:42.421Z,11748
2016-08-09T08:02:42.422Z,11516
2016-08-09T08:03:42.430Z,11292
2016-08-09T08:04:41.721Z,10784
2016-08-09T08:05:42.481Z,10156
2016-08-09T08:06:43.228Z,9740
2016-08-09T08:07:43.236Z,9632
2016-08-09T08:08:41.830Z,9884
2016-08-09T08:09:41.941Z,10296
2016-08-09T08:10:42.603Z,10824
2016-08-09T08:11:42.600Z,11344
2016-08-09T08:12:43.348Z,11564
2016-08-09T08:13:42.699Z,11436
2016-08-09T08:14:42.711Z,11456
2016-08-09T08:15:42.014Z,12228
2016-08-09T08:16:42.021Z,13580
2016-08-09T08:17:42.765Z,14728
2016-08-09T08:18:41.864Z,14796
2016-08-09T08:19:42.831Z,14380
2016-08-09T08:20:42.883Z,14076
2016-08-09T08:21:42.229Z,14768
2016-08-09T08:22:43.551Z,15112
2016-08-09T08:23:43.603Z,15840
2016-08-09T08:24:42.270Z,16384
2016-08-09T08:25:42.933Z,16960
2016-08-09T08:26:43.174Z,16928
2016-08-09T08:27:43.681Z,17024
2016-08-09T08:28:42.371Z,18208
2016-08-09T08:29:43.032Z,19520
2016-08-09T08:30:43.857Z,21376
2016-08-09T08:31:42.386Z,22656
2016-08-09T08:32:43.192Z,23392
2016-08-09T08:33:42.251Z,23776
2016-08-09T08:34:43.864Z,24384
2016-08-09T08:35:43.212Z,24608
2016-08-09T08:36:42.484Z,25248
2016-08-09T08:37:43.236Z,24960
2016-08-09T08:38:43.943Z,24480
2016-08-09T08:39:44.185Z,23200
2016-08-09T08:40:43.333Z,20672
2016-08-09T08:41:41.919Z,18624
2016-08-09T08:42:42.642Z,16928
2016-08-09T08:43:44.176Z,15456
2016-08-09T08:44:42.701Z,14548
2016-08-09T08:45:43.412Z,14536
2016-08-09T08:46:43.534Z,15744
2016-08-09T08:47:43.463Z,17984
2016-08-09T08:48:44.528Z,19488
2016-08-09T08:49:43.523Z,17984
2016-08-09T08:50:43.729Z,15744
2016-08-09T08:51:43.570Z,15284
2016-08-09T08:52:43.072Z,16416
2016-08-09T08:53:42.928Z,17408
2016-08-09T08:54:43.654Z,17792
2016-08-09T08:55:43.681Z,18336
2016-08-09T08:56:42.978Z,19200
2016-08-09T08:57:43.721Z,19904
2016-08-09T08:58:43.742Z,21056
2016-08-09T08:59:43.779Z,22080
2016-08-09T09:00:43.791Z,21952
2016-08-09T09:01:43.258Z,23264
2016-08-09T09:02:43.958Z,23552
2016-08-09T09:03:42.457Z,23840
2016-08-09T09:04:44.602Z,24288
2016-08-09T09:05:42.540Z,23616
2016-08-09T09:06:42.582Z,23360
2016-08-09T09:07:42.554Z,23968
2016-08-09T09:08:44.081Z,24320
2016-08-09T09:09:44.853Z,23904
2016-08-09T09:10:42.762Z,23392
2016-08-09T09:11:42.663Z,22336
2016-08-09T09:12:43.385Z,21248
2016-08-09T09:13:44.118Z,19904
2016-08-09T09:14:43.514Z,18464
2016-08-09T09:15:44.168Z,17760
2016-08-09T09:16:44.959Z,17280
2016-08-09T09:17:44.956Z,16736
2016-08-09T09:18:44.263Z,15632
2016-08-09T09:19:43.582Z,14760
2016-08-09T09:20:45.232Z,14364
2016-08-09T09:21:43.762Z,14624
2016-08-09T09:22:44.496Z,15404
2016-08-09T09:23:44.533Z,16768
2016-08-09T09:24:44.503Z,17472
2016-08-09T09:25:44.584Z,18048
2016-08-09T09:26:43.852Z,18464
2016-08-09T09:27:43.880Z,19040
2016-08-09T09:28:44.555Z,20096
2016-08-09T09:29:45.334Z,20224
2016-08-09T09:30:45.263Z,19776
2016-08-09T09:31:44.686Z,19232
2016-08-09T09:32:45.303Z,18816
2016-08-09T09:33:44.642Z,19520
2016-08-09T09:34:44.664Z,19360
2016-08-09T09:35:44.680Z,16480
2016-08-09T09:36:45.420Z,13644
2016-08-09T09:37:44.033Z,11280
2016-08-09T09:38:45.463Z,10692
2016-08-09T09:39:44.799Z,10284
2016-08-09T09:40:44.087Z,9976
2016-08-09T09:41:44.262Z,9844
2016-08-09T09:42:44.837Z,9880
2016-08-09T09:43:44.869Z,10148
2016-08-09T09:44:44.892Z,9104
2016-08-09T09:45:44.940Z,10820
2016-08-09T09:46:44.980Z,13000
2016-08-09T09:47:44.284Z,15512
2016-08-09T09:48:45.006Z,16544
2016-08-09T09:49:45.918Z,15220
2016-08-09T09:50:45.027Z,14436
2016-08-09T09:51:45.070Z,14612
2016-08-09T09:52:45.799Z,16896
2016-08-09T09:53:44.422Z,16704
2016-08-09T09:54:44.453Z,15332
2016-08-09T09:55:44.462Z,16896
2016-08-09T09:56:45.251Z,16832
2016-08-09T09:57:45.957Z,15936
2016-08-09T09:58:44.549Z,16832
2016-08-09T09:59:45.272Z,15588
2016-08-09T10:00:46.019Z,12580
2016-08-09T10:01:45.321Z,10532
2016-08-09T10:02:45.413Z,9724
2016-08-09T10:03:45.506Z,9268
2016-08-09T10:04:44.083Z,9652
2016-08-09T10:05:45.524Z,9700
2016-08-09T10:06:45.446Z,10864
2016-08-09T10:07:46.170Z,11484
2016-08-09T10:08:44.801Z,10292
2016-08-09T10:09:46.250Z,8824
2016-08-09T10:10:44.844Z,8144
2016-08-09T10:11:44.867Z,8204
2016-08-09T10:12:44.975Z,8560
2016-08-09T10:13:46.322Z,9548
2016-08-09T10:14:46.360Z,11016
2016-08-09T10:15:45.663Z,13012
2016-08-09T10:16:46.395Z,15328
2016-08-09T10:17:45.733Z,16480
2016-08-09T10:18:46.464Z,16000
2016-08-09T10:19:45.081Z,14828
2016-08-09T10:20:44.452Z,14896
2016-08-09T10:21:45.815Z,14672
2016-08-09T10:22:45.121Z,13968
2016-08-09T10:23:45.861Z,14072
2016-08-09T10:24:45.201Z,14664
2016-08-09T10:25:46.613Z,16160
2016-08-09T10:26:45.238Z,17824
2016-08-09T10:27:45.976Z,18080
2016-08-09T10:28:44.574Z,17280
2016-08-09T10:29:45.360Z,16384
2016-08-09T10:30:46.043Z,14000
2016-08-09T10:31:46.119Z,12524
2016-08-09T10:32:46.105Z,12448
2016-08-09T10:33:45.503Z,11532
2016-08-09T10:34:46.163Z,10400
2016-08-09T10:35:46.189Z,9532
2016-08-09T10:36:44.857Z,9488
2016-08-09T10:37:47.099Z,10372
2016-08-09T10:38:45.560Z,10036
2016-08-09T10:39:47.196Z,9916
2016-08-09T10:40:46.332Z,10128
2016-08-09T10:41:46.316Z,9992
2016-08-09T10:42:45.743Z,9364
2016-08-09T10:43:46.370Z,8820
2016-08-09T10:44:46.397Z,9408
2016-08-09T10:45:46.421Z,10316
2016-08-09T10:46:46.479Z,11088
2016-08-09T10:47:45.917Z,12220
2016-08-09T10:48:46.490Z,11476
2016-08-09T10:49:46.522Z,10268
2016-08-09T10:50:47.274Z,11392
2016-08-09T10:51:46.662Z,12552
2016-08-09T10:52:46.595Z,10700
2016-08-09T10:53:46.734Z,9124
2016-08-09T10:54:45.932Z,8484
2016-08-09T10:55:45.971Z,8916
2016-08-09T10:56:46.702Z,10284
2016-08-09T10:57:46.736Z,12484
2016-08-09T10:58:46.751Z,15268
2016-08-09T10:59:46.750Z,18240
2016-08-09T11:00:46.179Z,20192
2016-08-09T11:01:47.521Z,21248
2016-08-09T11:02:46.844Z,21760
2016-08-09T11:03:46.892Z,21824
2016-08-09T11:04:46.903Z,21248
2016-08-09T11:05:46.227Z,20576
2016-08-09T11:06:46.250Z,19360
2016-08-09T11:07:46.978Z,18080
2016-08-09T11:08:47.733Z,16896
2016-08-09T11:09:48.032Z,16160
2016-08-09T11:10:47.044Z,15840
2016-08-09T11:11:47.082Z,15744
2016-08-09T11:12:47.106Z,15488
2016-08-09T11:13:47.833Z,14156
2016-08-09T11:14:47.295Z,11904
2016-08-09T11:15:47.933Z,8936
2016-08-09T11:16:47.915Z,6940
2016-08-09T11:17:47.333Z,6276
2016-08-09T11:18:47.341Z,6112
2016-08-09T11:19:47.968Z,6176
2016-08-09T11:20:47.402Z,6392
2016-08-09T11:21:48.052Z,6604
2016-08-09T11:22:47.433Z,7208
2016-08-09T11:23:47.357Z,7820
2016-08-09T11:24:48.131Z,8396
2016-08-09T11:25:47.734Z,8548
2016-08-09T11:26:47.522Z,9192
2016-08-09T11:27:48.170Z,9660
2016-08-09T11:28:48.491Z,10220
2016-08-09T11:29:46.810Z,10836
2016-08-09T11:30:48.370Z,11200
2016-08-09T11:31:48.272Z,11160
2016-08-09T11:32:46.893Z,11104
2016-08-09T11:33:47.612Z,11172
2016-08-09T11:34:46.932Z,11608
2016-08-09T11:35:48.412Z,12036
2016-08-09T11:36:47.680Z,12528
2016-08-09T11:37:47.782Z,13268
2016-08-09T11:38:46.313Z,14256
2016-08-09T11:39:48.533Z,15552
2016-08-09T11:40:47.070Z,16768
2016-08-09T11:41:47.892Z,17984
2016-08-09T11:42:47.822Z,19040
2016-08-09T11:43:48.572Z,19808
2016-08-09T11:44:47.932Z,20160
2016-08-09T11:45:48.616Z,20000
2016-08-09T11:46:47.944Z,19520
2016-08-09T11:47:47.957Z,19200
2016-08-09T11:48:48.162Z,18816
2016-08-09T11:49:47.982Z,18304
2016-08-09T11:50:48.719Z,17760
2016-08-09T11:51:48.033Z,17248
2016-08-09T11:52:48.047Z,16960
2016-08-09T11:53:48.079Z,16928
2016-08-09T11:54:47.545Z,17504
2016-08-09T11:55:48.122Z,18208
2016-08-09T11:56:48.163Z,19232
2016-08-09T11:57:48.874Z,20000
2016-08-09T11:58:48.892Z,19616
2016-08-09T11:59:46.812Z,18784
2016-08-09T12:00:48.261Z,18080
2016-08-09T12:01:48.999Z,17376
2016-08-09T12:02:49.014Z,16384
2016-08-09T12:03:48.312Z,14880
2016-08-09T12:04:48.354Z,13664
2016-08-09T12:05:48.401Z,12556
2016-08-09T12:06:48.480Z,11548
2016-08-09T12:07:48.402Z,10172
2016-08-09T12:08:47.757Z,8528
2016-08-09T12:09:49.153Z,6992
2016-08-09T12:10:48.494Z,6228
2016-08-09T12:11:49.227Z,5916
2016-08-09T12:12:48.545Z,5656
2016-08-09T12:13:47.153Z,5028
2016-08-09T12:14:48.575Z,4752
2016-08-09T12:15:49.316Z,5444
2016-08-09T12:16:48.622Z,5960
2016-08-09T12:17:49.365Z,5924
2016-08-09T12:18:49.376Z,5780
2016-08-09T12:19:48.104Z,5752
2016-08-09T12:20:48.752Z,5724
2016-08-09T12:21:48.766Z,5572
2016-08-09T12:22:48.793Z,5364
2016-08-09T12:23:49.514Z,5164
2016-08-09T12:24:49.525Z,5120
2016-08-09T12:25:48.884Z,5172
2016-08-09T12:26:48.850Z,4904
2016-08-09T12:27:48.893Z,4716
2016-08-09T12:28:49.609Z,4456
2016-08-09T12:29:49.663Z,4616
2016-08-09T12:30:49.068Z,5012
2016-08-09T12:31:49.700Z,5396
2016-08-09T12:32:49.690Z,5760
2016-08-09T12:33:49.727Z,6168
2016-08-09T12:34:49.774Z,6684
2016-08-09T12:35:49.067Z,7236
2016-08-09T12:36:49.900Z,7796
2016-08-09T12:37:49.824Z,8384
2016-08-09T12:38:49.873Z,8844
2016-08-09T12:39:49.206Z,9212
2016-08-09T12:40:49.172Z,9392
2016-08-09T12:41:49.202Z,9264
2016-08-09T12:42:49.240Z,8860
2016-08-09T12:43:49.330Z,8372
2016-08-09T12:44:49.974Z,7884
2016-08-09T12:45:48.577Z,7544
2016-08-09T12:46:50.003Z,7312
2016-08-09T12:47:50.123Z,7092
2016-08-09T12:48:48.742Z,6808
2016-08-09T12:49:50.073Z,6452
2016-08-09T12:50:50.089Z,6292
2016-08-09T12:51:48.735Z,6376
2016-08-09T12:52:48.764Z,6616
2016-08-09T12:53:49.453Z,7016
2016-08-09T12:54:49.624Z,7528
2016-08-09T12:55:48.791Z,8076
2016-08-09T12:56:48.863Z,8640
2016-08-09T12:57:49.542Z,9152
2016-08-09T12:58:48.943Z,9592
2016-08-09T12:59:49.595Z,9992
2016-08-09T13:00:50.392Z,10292
2016-08-09T13:01:49.652Z,10576
2016-08-09T13:02:48.963Z,11016
2016-08-09T13:03:48.982Z,11464
2016-08-09T13:04:50.513Z,11896
2016-08-09T13:05:50.453Z,12448
2016-08-09T13:06:49.764Z,12992
2016-08-09T13:07:50.482Z,13456
2016-08-09T13:08:50.504Z,13604
2016-08-09T13:09:49.231Z,13588
2016-08-09T13:10:50.568Z,13616
2016-08-09T13:11:48.443Z,13536
2016-08-09T13:12:49.166Z,13460
2016-08-09T13:13:49.185Z,13592
2016-08-09T13:14:49.219Z,13876
2016-08-09T13:15:49.251Z,14140
2016-08-09T13:16:50.683Z,14128
2016-08-09T13:17:50.314Z,13884
2016-08-09T13:18:50.902Z,13588
2016-08-09T13:19:50.043Z,13292
2016-08-09T13:20:51.056Z,13012
2016-08-09T13:21:50.313Z,13112
2016-08-09T13:22:51.161Z,13284
2016-08-09T13:23:50.944Z,12944
2016-08-09T13:24:50.263Z,12924
2016-08-09T13:25:50.272Z,13456
2016-08-09T13:26:49.504Z,13832
2016-08-09T13:27:50.943Z,15328
2016-08-09T13:28:49.574Z,16800
2016-08-09T13:29:50.982Z,16672
2016-08-09T13:30:51.187Z,16128
2016-08-09T13:31:51.032Z,16544
2016-08-09T13:32:51.164Z,17920
2016-08-09T13:33:50.505Z,19168
2016-08-09T13:34:50.773Z,19712
2016-08-09T13:35:50.501Z,18752
2016-08-09T13:36:50.465Z,17600
2016-08-09T13:37:49.773Z,16320
2016-08-09T13:38:49.911Z,15360
2016-08-09T13:39:50.511Z,15264